createdAt,value
2023-01-06T00:01:36.420Z,100840.44
2023-01-06T00:04:04.606Z,100843.28
2023-01-06T00:06:32.426Z,100839.66
2023-01-06T00:09:04.087Z,100844.31
2023-01-06T00:11:32.059Z,100844.78
2023-01-06T00:13:59.875Z,100842.06
2023-01-06T00:16:27.547Z,100843.94
2023-01-06T00:18:57.709Z,100849.75
2023-01-06T00:21:25.275Z,100845.47
2023-01-06T00:23:52.583Z,100848.75
2023-01-06T00:26:19.962Z,100848.06
2023-01-06T00:28:48.385Z,100842.88
2023-01-06T00:31:17.370Z,100838.81
2023-01-06T00:33:45.019Z,100849.22
2023-01-06T00:36:14.255Z,100843.34
2023-01-06T00:38:42.907Z,100845.16
2023-01-06T00:41:32.478Z,100845.66
2023-01-06T00:44:00.732Z,100853.31
2023-01-06T00:46:31.623Z,100847.88
2023-01-06T00:49:05.841Z,100851.53
2023-01-06T00:51:39.074Z,100853.31
2023-01-06T00:54:09.720Z,100857.09
2023-01-06T00:56:44.612Z,100850.44
2023-01-06T00:59:15.386Z,100852.25
2023-01-06T01:01:44.533Z,100851.09
2023-01-06T01:04:15.718Z,100849.88
2023-01-06T01:06:45.523Z,100849.56
2023-01-06T01:09:28.451Z,100853.78
2023-01-06T01:12:12.861Z,100851.56
2023-01-06T01:14:53.617Z,100860.41
2023-01-06T01:17:35.005Z,100858.06
2023-01-06T01:20:02.323Z,100861.56
2023-01-06T01:22:31.489Z,100863.63
2023-01-06T01:25:01.461Z,100868.03
2023-01-06T01:27:31.223Z,100865.44
2023-01-06T01:29:58.501Z,100872.34
2023-01-06T01:32:28.804Z,100871.91
2023-01-06T01:34:58.608Z,100869.06
2023-01-06T01:37:25.753Z,100863.31
2023-01-06T01:39:52.967Z,100876.69
2023-01-06T01:42:23.032Z,100882.56
2023-01-06T01:45:07.746Z,100883.59
2023-01-06T01:47:55.381Z,100871.13
2023-01-06T01:50:43.772Z,100876.31
2023-01-06T01:53:21.322Z,100879.84
2023-01-06T01:55:52.330Z,100878.78
2023-01-06T01:58:36.841Z,100872.94
2023-01-06T02:01:08.665Z,100875.19
2023-01-06T02:03:41.159Z,100881.28
2023-01-06T02:06:17.212Z,100872.72
2023-01-06T02:09:17.894Z,100864.34
2023-01-06T02:11:47.488Z,100863.19
2023-01-06T02:14:21.199Z,100860.69
2023-01-06T02:17:37.957Z,100855.13
2023-01-06T02:20:45.040Z,100858.91
2023-01-06T02:23:24.191Z,100852.66
2023-01-06T02:26:28.229Z,100863.88
2023-01-06T02:30:16.072Z,100855.38
2023-01-06T02:33:00.452Z,100841.72
2023-01-06T02:36:21.402Z,100845.09
2023-01-06T02:39:24.859Z,100852.13
2023-01-06T02:42:32.368Z,100840.94
2023-01-06T02:45:27.800Z,100832.31
2023-01-06T02:48:47.122Z,100839.25
2023-01-06T02:51:46.739Z,100835.84
2023-01-06T02:54:32.751Z,100841.03
2023-01-06T02:57:34.698Z,100839.13
2023-01-06T03:00:09.055Z,100833.81
2023-01-06T03:02:42.790Z,100838.09
2023-01-06T03:05:16.625Z,100835.72
2023-01-06T03:07:47.979Z,100829.47
2023-01-06T03:10:20.491Z,100829.47
2023-01-06T03:13:02.813Z,100830.28
2023-01-06T03:15:30.940Z,100824.16
2023-01-06T03:18:00.650Z,100837.16
2023-01-06T03:20:28.931Z,100833.81
2023-01-06T03:22:56.157Z,100842.38
2023-01-06T03:25:23.624Z,100843.28
2023-01-06T03:27:51.142Z,100848.72
2023-01-06T03:30:27.355Z,100831.31
2023-01-06T03:33:23.128Z,100837.66
2023-01-06T03:36:07.123Z,100840.81
2023-01-06T03:39:01.356Z,100841.59
2023-01-06T03:42:35.987Z,100840.13
2023-01-06T03:45:38.290Z,100836.75
2023-01-06T03:48:39.511Z,100840.25
2023-01-06T03:51:55.462Z,100849.88
2023-01-06T03:54:58.287Z,100840.72
2023-01-06T03:57:38.044Z,100844.00
2023-01-06T04:00:22.488Z,100847.66
2023-01-06T04:02:57.925Z,100846.84
2023-01-06T04:05:29.659Z,100840.59
2023-01-06T04:07:59.223Z,100842.44
2023-01-06T04:10:27.969Z,100852.84
2023-01-06T04:12:58.029Z,100842.44
2023-01-06T04:15:32.628Z,100842.44
2023-01-06T04:18:01.192Z,100841.53
2023-01-06T04:20:32.027Z,100845.94
2023-01-06T04:23:09.271Z,100850.25
2023-01-06T04:25:39.123Z,100852.06
2023-01-06T04:28:16.460Z,100850.25
2023-01-06T04:30:44.822Z,100858.72
2023-01-06T04:33:12.666Z,100860.41
2023-01-06T04:35:43.899Z,100860.53
2023-01-06T04:38:11.448Z,100864.81
2023-01-06T04:40:39.943Z,100864.81
2023-01-06T04:43:07.288Z,100867.44
2023-01-06T04:45:35.522Z,100865.75
2023-01-06T04:48:05.405Z,100869.47
2023-01-06T04:50:33.599Z,100873.13
2023-01-06T04:53:00.843Z,100877.28
2023-01-06T04:55:28.693Z,100877.28
2023-01-06T04:57:55.915Z,100877.28
2023-01-06T05:00:23.575Z,100868.22
2023-01-06T05:02:50.994Z,100877.28
2023-01-06T05:05:18.231Z,100874.44
2023-01-06T05:07:45.576Z,100873.44
2023-01-06T05:10:15.580Z,100875.25
2023-01-06T05:12:43.155Z,100871.19
2023-01-06T05:15:11.543Z,100870.28
2023-01-06T05:17:38.780Z,100871.97
2023-01-06T05:20:09.356Z,100878.88
2023-01-06T05:22:36.545Z,100889.81
2023-01-06T05:25:04.258Z,100886.97
2023-01-06T05:27:33.704Z,100885.97
2023-01-06T05:30:04.803Z,100885.88
2023-01-06T05:32:32.097Z,100887.69
2023-01-06T05:35:01.759Z,100894.63
2023-01-06T05:37:28.979Z,100897.47
2023-01-06T05:39:56.215Z,100895.38
2023-01-06T05:42:23.492Z,100891.78
2023-01-06T05:44:50.639Z,100898.66
2023-01-06T05:47:20.104Z,100900.81
2023-01-06T05:49:47.295Z,100908.75
2023-01-06T05:52:14.560Z,100923.72
2023-01-06T05:54:41.798Z,100918.63
2023-01-06T05:57:10.064Z,100917.28
2023-01-06T05:59:37.402Z,100923.53
2023-01-06T06:02:04.607Z,100911.31
2023-01-06T06:04:31.880Z,100918.88
2023-01-06T06:06:59.359Z,100916.03
2023-01-06T06:09:26.561Z,100920.44
2023-01-06T06:11:56.913Z,100934.63
2023-01-06T06:14:26.784Z,100926.13
2023-01-06T06:16:56.110Z,100933.94
2023-01-06T06:19:23.392Z,100934.97
2023-01-06T06:21:50.654Z,100937.09
2023-01-06T06:24:17.838Z,100933.81
2023-01-06T06:26:44.989Z,100948.00
2023-01-06T06:29:12.234Z,100947.75
2023-01-06T06:31:39.659Z,100947.63
2023-01-06T06:34:06.868Z,100943.31
2023-01-06T06:36:34.090Z,100950.00
2023-01-06T06:39:01.699Z,100946.47
2023-01-06T06:41:28.948Z,100947.91
2023-01-06T06:43:56.412Z,100951.69
2023-01-06T06:46:26.132Z,100951.78
2023-01-06T06:48:54.457Z,100948.81
2023-01-06T06:51:23.277Z,100954.84
2023-01-06T06:53:51.325Z,100955.34
2023-01-06T06:56:21.857Z,100950.28
2023-01-06T06:58:49.433Z,100955.34
2023-01-06T07:01:20.649Z,100959.06
2023-01-06T07:03:50.547Z,100960.88
2023-01-06T07:06:28.788Z,100956.84
2023-01-06T07:08:56.201Z,100968.19
2023-01-06T07:11:23.775Z,100971.66
2023-01-06T07:13:50.987Z,100971.22
2023-01-06T07:16:19.771Z,100965.94
2023-01-06T07:18:47.569Z,100974.69
2023-01-06T07:21:17.081Z,100974.91
2023-01-06T07:23:44.363Z,100984.03
2023-01-06T07:26:11.909Z,100980.94
2023-01-06T07:28:39.143Z,100991.47
2023-01-06T07:31:06.384Z,100988.19
2023-01-06T07:33:33.846Z,100996.25
2023-01-06T07:36:01.102Z,100994.81
2023-01-06T07:38:28.288Z,100998.34
2023-01-06T07:41:00.955Z,100999.22
2023-01-06T07:43:28.835Z,101000.16
2023-01-06T07:45:56.147Z,101004.44
2023-01-06T07:48:23.348Z,101004.28
2023-01-06T07:50:50.676Z,101009.75
2023-01-06T07:53:18.027Z,101014.81
2023-01-06T07:55:53.617Z,101012.59
2023-01-06T07:58:23.814Z,101009.75
2023-01-06T08:00:51.541Z,101015.34
2023-01-06T08:03:18.894Z,101020.41
2023-01-06T08:05:46.159Z,101022.06
2023-01-06T08:08:13.428Z,101033.16
2023-01-06T08:10:42.660Z,101028.09
2023-01-06T08:13:10.779Z,101031.31
2023-01-06T08:15:38.914Z,101028.22
2023-01-06T08:18:07.478Z,101029.38
2023-01-06T08:20:35.068Z,101040.66
2023-01-06T08:23:02.797Z,101039.88
2023-01-06T08:25:30.160Z,101049.63
2023-01-06T08:28:00.305Z,101035.72
2023-01-06T08:30:28.758Z,101049.88
2023-01-06T08:33:00.151Z,101049.47
2023-01-06T08:35:28.295Z,101048.78
2023-01-06T08:37:55.596Z,101048.13
2023-01-06T08:40:23.161Z,101046.31
2023-01-06T08:42:50.519Z,101048.13
2023-01-06T08:45:17.945Z,101056.81
2023-01-06T08:47:45.118Z,101057.28
2023-01-06T08:50:12.397Z,101049.34
2023-01-06T08:52:39.663Z,101053.88
2023-01-06T08:55:07.084Z,101069.03
2023-01-06T08:57:34.995Z,101063.28
2023-01-06T09:00:05.778Z,101070.94
2023-01-06T09:02:33.059Z,101076.13
2023-01-06T09:05:00.381Z,101078.88
2023-01-06T09:07:27.854Z,101081.34
2023-01-06T09:09:56.211Z,101079.75
2023-01-06T09:12:23.792Z,101088.66
2023-01-06T09:14:51.031Z,101089.09
2023-01-06T09:17:18.356Z,101081.34
2023-01-06T09:19:45.511Z,101094.53
2023-01-06T09:22:12.718Z,101093.69
2023-01-06T09:24:39.996Z,101093.22
2023-01-06T09:27:07.291Z,101098.91
2023-01-06T09:29:34.651Z,101109.22
2023-01-06T09:32:03.306Z,101117.19
2023-01-06T09:34:30.578Z,101111.53
2023-01-06T09:36:57.906Z,101122.97
2023-01-06T09:39:25.196Z,101117.06
2023-01-06T09:42:29.552Z,101111.03
2023-01-06T09:45:19.763Z,101114.91
2023-01-06T09:47:57.984Z,101114.91
2023-01-06T09:51:05.671Z,101127.97
2023-01-06T09:53:41.340Z,101122.53
2023-01-06T09:56:21.616Z,101117.31
2023-01-06T09:59:40.890Z,101109.72
2023-01-06T10:02:56.977Z,101113.66
2023-01-06T10:06:05.553Z,101114.59
2023-01-06T10:09:20.749Z,101108.69
2023-01-06T10:12:46.161Z,101109.53
2023-01-06T10:15:40.170Z,101106.03
2023-01-06T10:18:27.394Z,101116.22
2023-01-06T10:21:35.424Z,101111.66
2023-01-06T10:24:41.607Z,101104.66
2023-01-06T10:27:23.014Z,101107.69
2023-01-06T10:30:01.649Z,101098.28
2023-01-06T10:32:34.801Z,101094.09
2023-01-06T10:35:14.392Z,101091.38
2023-01-06T10:37:45.351Z,101092.41
2023-01-06T10:40:29.811Z,101095.59
2023-01-06T10:43:20.015Z,101085.53
2023-01-06T10:45:48.539Z,101082.75
2023-01-06T10:48:24.126Z,101085.19
2023-01-06T10:50:52.642Z,101084.94
2023-01-06T10:53:20.259Z,101081.06
2023-01-06T10:56:04.360Z,101077.78
2023-01-06T10:59:06.250Z,101075.28
2023-01-06T11:02:07.307Z,101076.13
2023-01-06T11:04:55.066Z,101066.59
2023-01-06T11:07:22.949Z,101062.31
2023-01-06T11:10:05.391Z,101058.69
2023-01-06T11:12:35.736Z,101052.53
2023-01-06T11:15:08.039Z,101046.91
2023-01-06T11:17:38.714Z,101045.50
2023-01-06T11:20:31.130Z,101033.75
2023-01-06T11:23:22.754Z,101037.00
2023-01-06T11:26:23.607Z,101035.09
2023-01-06T11:28:55.537Z,101034.19
2023-01-06T11:31:28.429Z,101038.97
2023-01-06T11:34:02.887Z,101039.03
2023-01-06T11:36:34.629Z,101036.13
2023-01-06T11:39:36.864Z,101037.00
2023-01-06T11:42:14.776Z,101027.16
2023-01-06T11:44:45.182Z,101036.47
2023-01-06T11:47:23.121Z,101030.34
2023-01-06T11:50:02.625Z,101032.94
2023-01-06T11:52:34.554Z,101027.13
2023-01-06T11:55:07.786Z,101018.88
2023-01-06T11:58:06.607Z,101017.88
2023-01-06T12:01:22.949Z,101010.81
2023-01-06T12:04:37.905Z,101012.19
2023-01-06T12:07:46.638Z,101004.66
2023-01-06T12:10:33.516Z,100999.66
2023-01-06T12:13:05.811Z,101004.84
2023-01-06T12:15:38.902Z,100991.72
2023-01-06T12:18:32.492Z,100985.19
2023-01-06T12:21:13.220Z,100985.25
2023-01-06T12:23:42.727Z,100989.47
2023-01-06T12:26:24.950Z,100990.63
2023-01-06T12:28:56.300Z,100992.44
2023-01-06T12:31:55.141Z,100989.03
2023-01-06T12:34:37.737Z,100988.56
2023-01-06T12:37:34.138Z,100974.94
2023-01-06T12:40:32.179Z,100986.75
2023-01-06T12:43:20.047Z,100979.28
2023-01-06T12:46:20.076Z,100975.22
2023-01-06T12:49:44.494Z,100982.25
2023-01-06T12:52:32.249Z,100977.91
2023-01-06T12:55:05.266Z,100972.69
2023-01-06T12:57:41.645Z,100971.56
2023-01-06T13:01:01.418Z,100970.88
2023-01-06T13:04:15.438Z,100977.66
2023-01-06T13:07:16.330Z,100972.03
2023-01-06T13:10:29.171Z,100967.00
2023-01-06T13:13:36.430Z,100965.22
2023-01-06T13:17:01.144Z,100964.94
2023-01-06T13:20:02.567Z,100967.19
2023-01-06T13:23:41.962Z,100965.84
2023-01-06T13:26:37.447Z,100967.56
2023-01-06T13:29:31.141Z,100968.91
2023-01-06T13:32:19.383Z,100958.97
2023-01-06T13:35:20.693Z,100955.47
2023-01-06T13:38:26.287Z,100962.25
2023-01-06T13:41:00.764Z,100962.94
2023-01-06T13:43:32.667Z,100966.88
2023-01-06T13:46:17.483Z,100965.56
2023-01-06T13:48:53.968Z,100967.72
2023-01-06T13:51:36.687Z,100955.47
2023-01-06T13:54:04.250Z,100968.50
2023-01-06T13:56:35.834Z,100965.44
2023-01-06T13:59:26.784Z,100972.69
2023-01-06T14:01:54.867Z,100967.00
2023-01-06T14:04:46.677Z,100958.19
2023-01-06T14:07:14.938Z,100962.47
2023-01-06T14:09:52.322Z,100960.34
2023-01-06T14:12:26.484Z,100958.09
2023-01-06T14:15:23.679Z,100956.69
2023-01-06T14:17:50.923Z,100953.97
2023-01-06T14:20:38.563Z,100953.22
2023-01-06T14:23:14.782Z,100957.28
2023-01-06T14:25:54.153Z,100953.75
2023-01-06T14:28:21.152Z,100962.72
2023-01-06T14:30:50.845Z,100958.84
2023-01-06T14:33:37.224Z,100959.53
2023-01-06T14:36:14.299Z,100959.28
2023-01-06T14:38:47.585Z,100959.63
2023-01-06T14:42:02.617Z,100953.88
2023-01-06T14:44:44.264Z,100951.38
2023-01-06T14:47:56.313Z,100956.59
2023-01-06T14:50:42.105Z,100955.59
2023-01-06T14:53:37.317Z,100956.34
2023-01-06T14:56:07.112Z,100955.88
2023-01-06T14:58:37.837Z,100952.41
2023-01-06T15:01:08.337Z,100959.28
2023-01-06T15:03:36.535Z,100968.69
2023-01-06T15:06:19.686Z,100952.03
2023-01-06T15:08:48.063Z,100957.25
2023-01-06T15:11:33.242Z,100967.78
2023-01-06T15:14:00.561Z,100965.84
2023-01-06T15:16:41.373Z,100957.66
2023-01-06T15:19:14.642Z,100956.78
2023-01-06T15:21:46.630Z,100958.34
2023-01-06T15:24:27.952Z,100954.72
2023-01-06T15:27:06.146Z,100954.81
2023-01-06T15:29:34.729Z,100952.09
2023-01-06T15:32:03.777Z,100951.22
2023-01-06T15:34:39.725Z,100949.25
2023-01-06T15:37:19.074Z,100951.09
2023-01-06T15:39:47.138Z,100951.88
2023-01-06T15:42:21.457Z,100949.25
2023-01-06T15:44:58.338Z,100955.38
2023-01-06T15:47:40.009Z,100952.78
2023-01-06T15:50:17.317Z,100957.88
2023-01-06T15:53:24.727Z,100957.06
2023-01-06T15:56:26.433Z,100955.28
2023-01-06T15:59:47.039Z,100956.84
2023-01-06T16:02:31.650Z,100957.63
2023-01-06T16:06:25.521Z,100961.03
2023-01-06T16:08:53.617Z,100960.94
2023-01-06T16:11:55.582Z,100964.28
2023-01-06T16:14:30.590Z,100960.00
2023-01-06T16:17:13.514Z,100966.00
2023-01-06T16:19:49.921Z,100968.50
2023-01-06T16:23:03.725Z,100969.03
2023-01-06T16:25:37.048Z,100972.31
2023-01-06T16:28:51.018Z,100975.28
2023-01-06T16:31:34.574Z,100978.00
2023-01-06T16:34:31.868Z,100976.44
2023-01-06T16:37:06.399Z,100973.94
2023-01-06T16:39:33.795Z,100981.63
2023-01-06T16:42:02.631Z,100983.69
2023-01-06T16:47:45.998Z,100988.09
2023-01-06T16:50:39.860Z,100982.75
2023-01-06T16:53:19.507Z,100982.88
2023-01-06T16:55:57.759Z,100987.34
2023-01-06T16:58:31.298Z,100989.81
2023-01-06T17:01:31.755Z,100987.97
2023-01-06T17:04:54.509Z,100986.06
2023-01-06T17:07:24.161Z,100986.84
2023-01-06T17:09:55.770Z,100989.34
2023-01-06T17:12:42.364Z,100992.69
2023-01-06T17:15:12.381Z,100995.44
2023-01-06T17:17:40.478Z,100992.81
2023-01-06T17:20:12.968Z,100997.78
2023-01-06T17:22:40.259Z,101001.88
2023-01-06T17:25:14.207Z,101002.88
2023-01-06T17:27:46.609Z,101002.88
2023-01-06T17:30:20.002Z,101005.38
2023-01-06T17:32:47.843Z,101005.38
2023-01-06T17:35:29.802Z,100992.66
2023-01-06T17:38:13.634Z,101007.59
2023-01-06T17:40:41.649Z,101011.00
2023-01-06T17:43:33.677Z,101011.44
2023-01-06T17:46:03.283Z,101009.38
2023-01-06T17:48:33.184Z,101007.06
2023-01-06T17:51:12.106Z,101016.69
2023-01-06T17:53:58.214Z,101020.75
2023-01-06T17:56:26.092Z,101015.19
2023-01-06T17:58:53.691Z,101018.56
2023-01-06T18:01:31.268Z,101028.31
2023-01-06T18:04:00.454Z,101021.28
2023-01-06T18:06:37.424Z,101027.66
2023-01-06T18:09:21.089Z,101022.44
2023-01-06T18:11:51.973Z,101027.66
2023-01-06T18:14:38.668Z,101024.25
2023-01-06T18:17:30.010Z,101026.97
2023-01-06T18:19:57.325Z,101028.97
2023-01-06T18:22:25.656Z,101024.69
2023-01-06T18:25:00.357Z,101025.59
2023-01-06T18:27:34.653Z,101032.38
2023-01-06T18:30:27.732Z,101032.91
2023-01-06T18:32:55.167Z,101036.28
2023-01-06T18:35:28.589Z,101033.03
2023-01-06T18:38:03.133Z,101035.28
2023-01-06T18:40:31.558Z,101038.88
2023-01-06T18:43:00.462Z,101040.47
2023-01-06T18:45:35.139Z,101035.66
2023-01-06T18:48:30.132Z,101045.69
2023-01-06T18:51:00.805Z,101048.06
2023-01-06T18:53:47.167Z,101049.38
2023-01-06T18:56:23.322Z,101049.75
2023-01-06T18:58:56.489Z,101060.03
2023-01-06T19:01:41.987Z,101056.28
2023-01-06T19:04:34.309Z,101057.97
2023-01-06T19:07:13.093Z,101060.16
2023-01-06T19:10:08.004Z,101057.81
2023-01-06T19:12:40.548Z,101066.25
2023-01-06T19:15:27.176Z,101065.25
2023-01-06T19:17:57.285Z,101059.78
2023-01-06T19:20:29.063Z,101064.22
2023-01-06T19:22:58.282Z,101058.88
2023-01-06T19:25:46.792Z,101059.78
2023-01-06T19:28:29.786Z,101062.28
2023-01-06T19:31:04.006Z,101063.16
2023-01-06T19:33:53.052Z,101064.50
2023-01-06T19:36:44.037Z,101065.13
2023-01-06T19:39:47.471Z,101069.03
2023-01-06T19:42:31.259Z,101069.16
2023-01-06T19:45:09.839Z,101064.50
2023-01-06T19:47:45.092Z,101069.94
2023-01-06T19:50:25.271Z,101061.78
2023-01-06T19:53:05.543Z,101057.31
2023-01-06T19:55:40.593Z,101054.09
2023-01-06T19:58:25.887Z,101057.44
2023-01-06T20:00:55.688Z,101059.16
2023-01-06T20:03:37.803Z,101053.16
2023-01-06T20:06:08.309Z,101053.84
2023-01-06T20:08:35.827Z,101050.44
2023-01-06T20:11:03.102Z,101048.63
2023-01-06T20:13:30.390Z,101042.38
2023-01-06T20:15:59.675Z,101042.94
2023-01-06T20:18:32.873Z,101046.28
2023-01-06T20:21:10.918Z,101041.34
2023-01-06T20:23:38.440Z,101046.66
2023-01-06T20:26:06.009Z,101043.06
2023-01-06T20:28:33.350Z,101045.53
2023-01-06T20:31:00.754Z,101039.94
2023-01-06T20:33:29.515Z,101039.81
2023-01-06T20:36:01.890Z,101045.78
2023-01-06T20:38:29.205Z,101042.44
2023-01-06T20:40:56.570Z,101044.09
2023-01-06T20:43:23.871Z,101045.66
2023-01-06T20:45:54.759Z,101041.09
2023-01-06T20:48:24.523Z,101039.94
2023-01-06T20:50:54.560Z,101040.97
2023-01-06T20:53:21.818Z,101038.09
2023-01-06T20:55:59.639Z,101038.09
2023-01-06T20:58:27.523Z,101052.16
2023-01-06T21:00:54.853Z,101039.94
2023-01-06T21:03:22.276Z,101046.03
2023-01-06T21:05:50.655Z,101038.38
2023-01-06T21:08:18.033Z,101044.78
2023-01-06T21:10:45.448Z,101046.84
2023-01-06T21:13:15.593Z,101044.47
2023-01-06T21:15:43.303Z,101040.84
2023-01-06T21:18:14.447Z,101041.38
2023-01-06T21:20:51.851Z,101037.97
2023-01-06T21:23:23.462Z,101041.38
2023-01-06T21:25:56.490Z,101035.91
2023-01-06T21:28:29.058Z,101044.53
2023-01-06T21:30:56.650Z,101034.63
2023-01-06T21:33:29.047Z,101042.16
2023-01-06T21:36:02.127Z,101034.63
2023-01-06T21:38:34.638Z,101040.19
2023-01-06T21:41:24.966Z,101033.28
2023-01-06T21:43:52.686Z,101037.72
2023-01-06T21:46:20.086Z,101033.53
2023-01-06T21:48:47.570Z,101036.13
2023-01-06T21:51:14.985Z,101036.94
2023-01-06T21:53:43.441Z,101029.81
2023-01-06T21:56:11.117Z,101039.03
2023-01-06T21:58:40.979Z,101037.22
2023-01-06T22:01:11.008Z,101032.03
2023-01-06T22:03:38.663Z,101039.56
2023-01-06T22:06:06.845Z,101037.97
2023-01-06T22:08:37.633Z,101034.88
2023-01-06T22:11:06.213Z,101037.34
2023-01-06T22:13:34.116Z,101033.56
2023-01-06T22:16:09.090Z,101036.94
2023-01-06T22:18:36.754Z,101031.78
2023-01-06T22:21:07.048Z,101032.41
2023-01-06T22:23:37.689Z,101038.53
2023-01-06T22:26:09.019Z,101035.13
2023-01-06T22:28:39.161Z,101039.69
2023-01-06T22:31:13.786Z,101048.13
2023-01-06T22:33:48.969Z,101036.47
2023-01-06T22:36:16.246Z,101040.75
2023-01-06T22:38:51.431Z,101037.22
2023-01-06T22:41:18.937Z,101033.06
2023-01-06T22:43:48.734Z,101036.47
2023-01-06T22:46:16.363Z,101039.69
2023-01-06T22:48:46.770Z,101039.81
2023-01-06T22:51:17.206Z,101047.38
2023-01-06T22:53:49.423Z,101041.13
2023-01-06T22:56:16.885Z,101033.69
2023-01-06T22:58:52.151Z,101034.09
2023-01-06T23:01:21.030Z,101033.81
2023-01-06T23:03:51.189Z,101036.44
2023-01-06T23:06:18.769Z,101032.03
2023-01-06T23:08:58.931Z,101027.31
2023-01-06T23:11:28.783Z,101028.13
2023-01-06T23:13:59.458Z,101023.84
2023-01-06T23:16:30.261Z,101016.78
2023-01-06T23:18:58.068Z,101017.84
2023-01-06T23:21:29.714Z,101023.97
2023-01-06T23:23:57.274Z,101017.06
2023-01-06T23:26:34.977Z,101011.22
2023-01-06T23:29:05.281Z,101009.63
2023-01-06T23:31:42.964Z,101013.28
2023-01-06T23:34:21.739Z,101010.53
2023-01-06T23:36:49.529Z,101007.28
2023-01-06T23:39:17.293Z,101006.09
2023-01-06T23:41:44.734Z,101003.75
2023-01-06T23:44:19.856Z,100997.63
2023-01-06T23:46:52.759Z,100995.00
2023-01-06T23:49:24.221Z,100993.22
2023-01-06T23:51:53.915Z,101000.47
2023-01-06T23:54:27.252Z,100999.47
2023-01-06T23:57:06.462Z,100999.59
2023-01-06T23:59:49.743Z,100995.69
